sensor_id;sensor_type;location;lat;lon;timestamp;P1;durP1;ratioP1;P2;durP2;ratioP2
25069;SDS011;13064;48.162;11.536;2022-10-16T00:01:09;4.82;;;1.95;;
25069;SDS011;13064;48.162;11.536;2022-10-16T00:03:41;4.10;;;2.30;;
25069;SDS011;13064;48.162;11.536;2022-10-16T00:06:09;5.25;;;2.00;;
25069;SDS011;13064;48.162;11.536;2022-10-16T00:08:38;4.13;;;2.10;;
25069;SDS011;13064;48.162;11.536;2022-10-16T00:11:06;4.15;;;2.17;;
25069;SDS011;13064;48.162;11.536;2022-10-16T00:13:35;7.05;;;2.08;;
25069;SDS011;13064;48.162;11.536;2022-10-16T00:16:03;3.35;;;2.25;;
25069;SDS011;13064;48.162;11.536;2022-10-16T00:18:31;3.28;;;2.10;;
25069;SDS011;13064;48.162;11.536;2022-10-16T00:21:05;4.40;;;2.10;;
25069;SDS011;13064;48.162;11.536;2022-10-16T00:23:33;8.60;;;2.28;;
25069;SDS011;13064;48.162;11.536;2022-10-16T00:26:02;5.85;;;2.28;;
25069;SDS011;13064;48.162;11.536;2022-10-16T00:28:30;4.35;;;2.00;;
25069;SDS011;13064;48.162;11.536;2022-10-16T00:30:58;4.20;;;2.10;;
25069;SDS011;13064;48.162;11.536;2022-10-16T00:33:25;2.60;;;2.13;;
25069;SDS011;13064;48.162;11.536;2022-10-16T00:35:53;4.07;;;1.98;;
25069;SDS011;13064;48.162;11.536;2022-10-16T00:38:20;5.25;;;2.13;;
25069;SDS011;13064;48.162;11.536;2022-10-16T00:40:48;4.35;;;2.38;;
25069;SDS011;13064;48.162;11.536;2022-10-16T00:46:03;4.10;;;2.22;;
25069;SDS011;13064;48.162;11.536;2022-10-16T00:48:30;6.70;;;1.90;;
25069;SDS011;13064;48.162;11.536;2022-10-16T00:50:58;3.65;;;1.98;;
25069;SDS011;13064;48.162;11.536;2022-10-16T00:53:26;6.68;;;2.00;;
25069;SDS011;13064;48.162;11.536;2022-10-16T00:55:54;3.88;;;2.25;;
25069;SDS011;13064;48.162;11.536;2022-10-16T00:58:22;3.85;;;2.28;;
25069;SDS011;13064;48.162;11.536;2022-10-16T01:00:49;2.92;;;1.70;;
25069;SDS011;13064;48.162;11.536;2022-10-16T01:05:53;3.75;;;1.88;;
25069;SDS011;13064;48.162;11.536;2022-10-16T01:08:27;3.83;;;2.00;;
25069;SDS011;13064;48.162;11.536;2022-10-16T01:10:57;3.30;;;1.70;;
25069;SDS011;13064;48.162;11.536;2022-10-16T01:13:33;4.32;;;1.80;;
25069;SDS011;13064;48.162;11.536;2022-10-16T01:16:12;4.32;;;1.60;;
25069;SDS011;13064;48.162;11.536;2022-10-16T01:18:45;3.65;;;1.85;;
25069;SDS011;13064;48.162;11.536;2022-10-16T01:21:27;4.45;;;1.50;;
25069;SDS011;13064;48.162;11.536;2022-10-16T01:29:24;3.78;;;1.50;;
25069;SDS011;13064;48.162;11.536;2022-10-16T01:34:22;4.80;;;1.48;;
25069;SDS011;13064;48.162;11.536;2022-10-16T01:36:56;4.28;;;1.45;;
25069;SDS011;13064;48.162;11.536;2022-10-16T01:39:25;3.55;;;1.50;;
25069;SDS011;13064;48.162;11.536;2022-10-16T01:42:19;2.83;;;1.48;;
25069;SDS011;13064;48.162;11.536;2022-10-16T01:44:44;5.32;;;1.65;;
25069;SDS011;13064;48.162;11.536;2022-10-16T01:47:13;5.38;;;1.33;;
25069;SDS011;13064;48.162;11.536;2022-10-16T01:49:42;3.83;;;1.48;;
25069;SDS011;13064;48.162;11.536;2022-10-16T01:52:12;2.53;;;1.45;;
25069;SDS011;13064;48.162;11.536;2022-10-16T01:54:41;3.30;;;1.45;;
25069;SDS011;13064;48.162;11.536;2022-10-16T01:57:10;2.92;;;1.60;;
25069;SDS011;13064;48.162;11.536;2022-10-16T01:59:42;3.00;;;1.30;;
25069;SDS011;13064;48.162;11.536;2022-10-16T02:04:41;1.90;;;1.52;;
25069;SDS011;13064;48.162;11.536;2022-10-16T02:07:09;9.23;;;1.70;;
25069;SDS011;13064;48.162;11.536;2022-10-16T02:09:37;2.88;;;1.30;;
25069;SDS011;13064;48.162;11.536;2022-10-16T02:12:10;2.42;;;1.40;;
25069;SDS011;13064;48.162;11.536;2022-10-16T02:14:39;1.92;;;1.40;;
25069;SDS011;13064;48.162;11.536;2022-10-16T02:17:14;1.42;;;1.30;;
25069;SDS011;13064;48.162;11.536;2022-10-16T02:19:42;3.45;;;1.40;;
25069;SDS011;13064;48.162;11.536;2022-10-16T02:22:15;2.00;;;1.33;;
25069;SDS011;13064;48.162;11.536;2022-10-16T02:30:03;4.63;;;1.48;;
25069;SDS011;13064;48.162;11.536;2022-10-16T02:32:35;1.58;;;1.40;;
25069;SDS011;13064;48.162;11.536;2022-10-16T02:35:04;2.65;;;1.50;;
25069;SDS011;13064;48.162;11.536;2022-10-16T02:37:32;4.18;;;1.48;;
25069;SDS011;13064;48.162;11.536;2022-10-16T02:40:00;5.55;;;1.38;;
25069;SDS011;13064;48.162;11.536;2022-10-16T02:42:31;2.63;;;1.25;;
25069;SDS011;13064;48.162;11.536;2022-10-16T02:45:00;1.33;;;1.23;;
25069;SDS011;13064;48.162;11.536;2022-10-16T02:47:27;2.53;;;1.40;;
25069;SDS011;13064;48.162;11.536;2022-10-16T02:49:55;5.93;;;1.40;;
25069;SDS011;13064;48.162;11.536;2022-10-16T02:52:22;1.55;;;1.27;;
25069;SDS011;13064;48.162;11.536;2022-10-16T02:54:51;3.92;;;1.30;;
25069;SDS011;13064;48.162;11.536;2022-10-16T02:57:18;3.45;;;1.27;;
25069;SDS011;13064;48.162;11.536;2022-10-16T02:59:46;4.13;;;1.40;;
25069;SDS011;13064;48.162;11.536;2022-10-16T03:02:13;4.03;;;1.40;;
25069;SDS011;13064;48.162;11.536;2022-10-16T03:04:41;2.63;;;1.42;;
25069;SDS011;13064;48.162;11.536;2022-10-16T03:07:09;2.38;;;1.10;;
25069;SDS011;13064;48.162;11.536;2022-10-16T03:09:36;1.40;;;1.30;;
25069;SDS011;13064;48.162;11.536;2022-10-16T03:12:04;5.07;;;1.60;;
25069;SDS011;13064;48.162;11.536;2022-10-16T03:14:31;1.30;;;1.20;;
25069;SDS011;13064;48.162;11.536;2022-10-16T03:16:59;2.47;;;1.30;;
25069;SDS011;13064;48.162;11.536;2022-10-16T03:19:27;5.40;;;1.30;;
25069;SDS011;13064;48.162;11.536;2022-10-16T03:21:54;4.55;;;1.42;;
25069;SDS011;13064;48.162;11.536;2022-10-16T03:24:22;3.50;;;1.58;;
25069;SDS011;13064;48.162;11.536;2022-10-16T03:26:49;3.00;;;1.50;;
25069;SDS011;13064;48.162;11.536;2022-10-16T03:29:17;1.88;;;1.30;;
25069;SDS011;13064;48.162;11.536;2022-10-16T03:31:44;3.22;;;1.40;;
25069;SDS011;13064;48.162;11.536;2022-10-16T03:34:12;3.50;;;1.40;;
25069;SDS011;13064;48.162;11.536;2022-10-16T03:36:39;3.30;;;1.35;;
25069;SDS011;13064;48.162;11.536;2022-10-16T03:39:08;4.30;;;1.40;;
25069;SDS011;13064;48.162;11.536;2022-10-16T03:41:35;2.38;;;1.52;;
25069;SDS011;13064;48.162;11.536;2022-10-16T03:44:03;3.28;;;1.23;;
25069;SDS011;13064;48.162;11.536;2022-10-16T03:46:30;2.95;;;1.50;;
25069;SDS011;13064;48.162;11.536;2022-10-16T03:48:58;1.75;;;1.40;;
25069;SDS011;13064;48.162;11.536;2022-10-16T03:51:26;2.17;;;1.45;;
25069;SDS011;13064;48.162;11.536;2022-10-16T03:53:53;5.53;;;1.50;;
25069;SDS011;13064;48.162;11.536;2022-10-16T03:56:21;4.25;;;1.70;;
25069;SDS011;13064;48.162;11.536;2022-10-16T03:58:48;3.70;;;1.55;;
25069;SDS011;13064;48.162;11.536;2022-10-16T04:01:16;4.15;;;1.50;;
25069;SDS011;13064;48.162;11.536;2022-10-16T04:03:43;1.88;;;1.40;;
25069;SDS011;13064;48.162;11.536;2022-10-16T04:06:11;2.30;;;1.30;;
25069;SDS011;13064;48.162;11.536;2022-10-16T04:08:38;3.40;;;1.42;;
25069;SDS011;13064;48.162;11.536;2022-10-16T04:11:06;2.17;;;1.30;;
25069;SDS011;13064;48.162;11.536;2022-10-16T04:13:34;2.33;;;1.60;;
25069;SDS011;13064;48.162;11.536;2022-10-16T04:16:01;2.70;;;1.50;;
25069;SDS011;13064;48.162;11.536;2022-10-16T04:18:29;2.75;;;1.40;;
25069;SDS011;13064;48.162;11.536;2022-10-16T04:20:56;3.30;;;1.52;;
25069;SDS011;13064;48.162;11.536;2022-10-16T04:23:24;4.00;;;1.52;;
25069;SDS011;13064;48.162;11.536;2022-10-16T04:25:51;1.55;;;1.20;;
25069;SDS011;13064;48.162;11.536;2022-10-16T04:28:19;1.38;;;1.20;;
25069;SDS011;13064;48.162;11.536;2022-10-16T04:30:47;2.80;;;1.55;;
25069;SDS011;13064;48.162;11.536;2022-10-16T04:33:16;5.88;;;1.52;;
25069;SDS011;13064;48.162;11.536;2022-10-16T04:35:43;2.88;;;1.50;;
25069;SDS011;13064;48.162;11.536;2022-10-16T04:38:11;1.80;;;1.48;;
25069;SDS011;13064;48.162;11.536;2022-10-16T04:40:39;6.22;;;1.67;;
25069;SDS011;13064;48.162;11.536;2022-10-16T04:43:06;3.08;;;1.55;;
25069;SDS011;13064;48.162;11.536;2022-10-16T04:45:34;1.25;;;1.10;;
25069;SDS011;13064;48.162;11.536;2022-10-16T04:48:02;2.53;;;1.50;;
25069;SDS011;13064;48.162;11.536;2022-10-16T04:50:29;3.65;;;1.30;;
25069;SDS011;13064;48.162;11.536;2022-10-16T04:53:04;4.63;;;1.60;;
25069;SDS011;13064;48.162;11.536;2022-10-16T04:55:32;1.85;;;1.48;;
25069;SDS011;13064;48.162;11.536;2022-10-16T04:58:00;2.38;;;1.50;;
25069;SDS011;13064;48.162;11.536;2022-10-16T05:00:27;4.70;;;1.40;;
25069;SDS011;13064;48.162;11.536;2022-10-16T05:02:55;2.80;;;1.48;;
25069;SDS011;13064;48.162;11.536;2022-10-16T05:05:23;3.33;;;1.42;;
25069;SDS011;13064;48.162;11.536;2022-10-16T05:07:51;1.90;;;1.40;;
25069;SDS011;13064;48.162;11.536;2022-10-16T05:10:18;3.38;;;1.90;;
25069;SDS011;13064;48.162;11.536;2022-10-16T05:12:46;3.33;;;1.60;;
25069;SDS011;13064;48.162;11.536;2022-10-16T05:15:14;2.65;;;1.45;;
25069;SDS011;13064;48.162;11.536;2022-10-16T05:17:41;2.70;;;1.70;;
25069;SDS011;13064;48.162;11.536;2022-10-16T05:20:10;3.05;;;1.48;;
25069;SDS011;13064;48.162;11.536;2022-10-16T05:22:38;1.92;;;1.60;;
25069;SDS011;13064;48.162;11.536;2022-10-16T05:25:06;2.35;;;1.42;;
25069;SDS011;13064;48.162;11.536;2022-10-16T05:27:33;2.78;;;1.58;;
25069;SDS011;13064;48.162;11.536;2022-10-16T05:30:01;3.08;;;1.40;;
25069;SDS011;13064;48.162;11.536;2022-10-16T05:32:30;1.45;;;1.35;;
25069;SDS011;13064;48.162;11.536;2022-10-16T05:34:57;2.17;;;1.48;;
25069;SDS011;13064;48.162;11.536;2022-10-16T05:37:29;4.97;;;1.38;;
25069;SDS011;13064;48.162;11.536;2022-10-16T05:39:57;3.85;;;1.40;;
25069;SDS011;13064;48.162;11.536;2022-10-16T05:42:24;3.45;;;1.60;;
25069;SDS011;13064;48.162;11.536;2022-10-16T05:44:52;5.50;;;1.38;;
25069;SDS011;13064;48.162;11.536;2022-10-16T05:47:19;3.08;;;1.30;;
25069;SDS011;13064;48.162;11.536;2022-10-16T05:49:47;2.20;;;1.35;;
25069;SDS011;13064;48.162;11.536;2022-10-16T05:52:15;3.42;;;1.60;;
25069;SDS011;13064;48.162;11.536;2022-10-16T05:54:42;6.88;;;1.77;;
25069;SDS011;13064;48.162;11.536;2022-10-16T05:57:10;2.17;;;1.40;;
25069;SDS011;13064;48.162;11.536;2022-10-16T05:59:37;3.55;;;1.33;;
25069;SDS011;13064;48.162;11.536;2022-10-16T06:02:05;2.88;;;1.60;;
25069;SDS011;13064;48.162;11.536;2022-10-16T06:04:32;2.00;;;1.50;;
25069;SDS011;13064;48.162;11.536;2022-10-16T06:07:00;3.08;;;1.48;;
25069;SDS011;13064;48.162;11.536;2022-10-16T06:09:28;3.13;;;1.50;;
25069;SDS011;13064;48.162;11.536;2022-10-16T06:11:55;2.67;;;1.60;;
25069;SDS011;13064;48.162;11.536;2022-10-16T06:14:23;2.20;;;1.38;;
25069;SDS011;13064;48.162;11.536;2022-10-16T06:16:50;2.55;;;1.50;;
25069;SDS011;13064;48.162;11.536;2022-10-16T06:19:18;3.42;;;1.73;;
25069;SDS011;13064;48.162;11.536;2022-10-16T06:21:45;2.63;;;1.50;;
25069;SDS011;13064;48.162;11.536;2022-10-16T06:24:14;1.77;;;1.60;;
25069;SDS011;13064;48.162;11.536;2022-10-16T06:26:42;2.22;;;1.65;;
25069;SDS011;13064;48.162;11.536;2022-10-16T06:29:09;4.63;;;1.85;;
25069;SDS011;13064;48.162;11.536;2022-10-16T06:31:37;2.10;;;1.52;;
25069;SDS011;13064;48.162;11.536;2022-10-16T06:34:04;3.08;;;1.55;;
25069;SDS011;13064;48.162;11.536;2022-10-16T06:36:36;3.28;;;1.90;;
25069;SDS011;13064;48.162;11.536;2022-10-16T06:39:04;5.20;;;1.80;;
25069;SDS011;13064;48.162;11.536;2022-10-16T06:41:33;9.05;;;1.80;;
25069;SDS011;13064;48.162;11.536;2022-10-16T06:44:14;2.85;;;1.60;;
25069;SDS011;13064;48.162;11.536;2022-10-16T06:46:41;1.95;;;1.75;;
25069;SDS011;13064;48.162;11.536;2022-10-16T06:49:09;5.88;;;1.83;;
25069;SDS011;13064;48.162;11.536;2022-10-16T06:51:37;2.78;;;1.80;;
25069;SDS011;13064;48.162;11.536;2022-10-16T06:54:09;4.50;;;1.70;;
25069;SDS011;13064;48.162;11.536;2022-10-16T06:56:37;3.00;;;1.90;;
25069;SDS011;13064;48.162;11.536;2022-10-16T06:59:04;3.40;;;1.90;;
25069;SDS011;13064;48.162;11.536;2022-10-16T07:01:32;5.63;;;2.03;;
25069;SDS011;13064;48.162;11.536;2022-10-16T07:04:00;3.92;;;1.85;;
25069;SDS011;13064;48.162;11.536;2022-10-16T07:06:30;5.95;;;1.90;;
25069;SDS011;13064;48.162;11.536;2022-10-16T07:08:58;5.90;;;1.92;;
25069;SDS011;13064;48.162;11.536;2022-10-16T07:11:28;2.90;;;1.77;;
25069;SDS011;13064;48.162;11.536;2022-10-16T07:13:55;4.82;;;1.92;;
25069;SDS011;13064;48.162;11.536;2022-10-16T07:16:24;4.90;;;2.20;;
25069;SDS011;13064;48.162;11.536;2022-10-16T07:18:53;4.10;;;2.03;;
25069;SDS011;13064;48.162;11.536;2022-10-16T07:21:25;5.57;;;2.30;;
25069;SDS011;13064;48.162;11.536;2022-10-16T07:23:55;8.90;;;2.00;;
25069;SDS011;13064;48.162;11.536;2022-10-16T07:26:24;4.28;;;2.40;;
25069;SDS011;13064;48.162;11.536;2022-10-16T07:28:52;5.75;;;2.72;;
25069;SDS011;13064;48.162;11.536;2022-10-16T07:31:20;3.55;;;2.60;;
25069;SDS011;13064;48.162;11.536;2022-10-16T07:33:49;4.07;;;2.40;;
25069;SDS011;13064;48.162;11.536;2022-10-16T07:36:17;5.50;;;2.30;;
25069;SDS011;13064;48.162;11.536;2022-10-16T07:38:45;5.03;;;2.90;;
25069;SDS011;13064;48.162;11.536;2022-10-16T07:41:15;4.63;;;2.20;;
25069;SDS011;13064;48.162;11.536;2022-10-16T07:43:46;3.17;;;2.38;;
25069;SDS011;13064;48.162;11.536;2022-10-16T07:46:14;3.58;;;2.65;;
25069;SDS011;13064;48.162;11.536;2022-10-16T07:48:42;3.97;;;2.30;;
25069;SDS011;13064;48.162;11.536;2022-10-16T07:51:14;4.20;;;2.35;;
25069;SDS011;13064;48.162;11.536;2022-10-16T07:53:42;4.07;;;2.00;;
25069;SDS011;13064;48.162;11.536;2022-10-16T07:56:09;9.15;;;2.10;;
25069;SDS011;13064;48.162;11.536;2022-10-16T07:58:38;3.80;;;2.08;;
25069;SDS011;13064;48.162;11.536;2022-10-16T08:01:06;3.20;;;2.47;;
25069;SDS011;13064;48.162;11.536;2022-10-16T08:03:34;2.35;;;2.00;;
25069;SDS011;13064;48.162;11.536;2022-10-16T08:06:02;2.97;;;2.00;;
25069;SDS011;13064;48.162;11.536;2022-10-16T08:08:30;2.47;;;1.92;;
25069;SDS011;13064;48.162;11.536;2022-10-16T08:10:57;3.25;;;2.00;;
25069;SDS011;13064;48.162;11.536;2022-10-16T08:13:25;2.05;;;1.80;;
25069;SDS011;13064;48.162;11.536;2022-10-16T08:15:53;4.55;;;2.05;;
25069;SDS011;13064;48.162;11.536;2022-10-16T08:18:21;6.15;;;2.40;;
25069;SDS011;13064;48.162;11.536;2022-10-16T08:20:54;3.90;;;2.15;;
25069;SDS011;13064;48.162;11.536;2022-10-16T08:23:23;3.45;;;1.98;;
25069;SDS011;13064;48.162;11.536;2022-10-16T08:25:53;3.10;;;2.10;;
25069;SDS011;13064;48.162;11.536;2022-10-16T08:28:20;4.13;;;1.83;;
25069;SDS011;13064;48.162;11.536;2022-10-16T08:30:48;5.03;;;2.17;;
25069;SDS011;13064;48.162;11.536;2022-10-16T08:33:16;4.05;;;2.30;;
25069;SDS011;13064;48.162;11.536;2022-10-16T08:35:50;2.75;;;1.80;;
25069;SDS011;13064;48.162;11.536;2022-10-16T08:38:17;1.77;;;1.67;;
25069;SDS011;13064;48.162;11.536;2022-10-16T08:40:45;3.63;;;1.80;;
25069;SDS011;13064;48.162;11.536;2022-10-16T08:48:35;4.30;;;1.60;;
25069;SDS011;13064;48.162;11.536;2022-10-16T08:51:07;1.98;;;1.60;;
25069;SDS011;13064;48.162;11.536;2022-10-16T08:53:38;1.73;;;1.60;;
25069;SDS011;13064;48.162;11.536;2022-10-16T08:56:07;3.40;;;2.25;;
25069;SDS011;13064;48.162;11.536;2022-10-16T08:58:35;2.90;;;1.60;;
25069;SDS011;13064;48.162;11.536;2022-10-16T09:01:03;1.60;;;1.50;;
25069;SDS011;13064;48.162;11.536;2022-10-16T09:06:49;3.75;;;1.75;;
25069;SDS011;13064;48.162;11.536;2022-10-16T09:14:32;1.67;;;1.58;;
25069;SDS011;13064;48.162;11.536;2022-10-16T09:22:28;1.73;;;1.63;;
25069;SDS011;13064;48.162;11.536;2022-10-16T09:24:58;2.88;;;1.40;;
25069;SDS011;13064;48.162;11.536;2022-10-16T09:27:27;1.83;;;1.63;;
25069;SDS011;13064;48.162;11.536;2022-10-16T09:29:55;2.78;;;1.75;;
25069;SDS011;13064;48.162;11.536;2022-10-16T09:32:25;2.05;;;1.50;;
25069;SDS011;13064;48.162;11.536;2022-10-16T09:34:54;1.73;;;1.50;;
25069;SDS011;13064;48.162;11.536;2022-10-16T09:37:23;1.73;;;1.58;;
25069;SDS011;13064;48.162;11.536;2022-10-16T09:39:53;1.65;;;1.48;;
25069;SDS011;13064;48.162;11.536;2022-10-16T09:42:31;1.95;;;1.60;;
25069;SDS011;13064;48.162;11.536;2022-10-16T09:44:59;4.55;;;1.50;;
25069;SDS011;13064;48.162;11.536;2022-10-16T09:47:27;1.70;;;1.60;;
25069;SDS011;13064;48.162;11.536;2022-10-16T09:52:24;2.88;;;1.55;;
25069;SDS011;13064;48.162;11.536;2022-10-16T09:54:52;2.28;;;1.40;;
25069;SDS011;13064;48.162;11.536;2022-10-16T09:57:21;2.33;;;1.50;;
25069;SDS011;13064;48.162;11.536;2022-10-16T09:59:54;2.85;;;1.50;;
25069;SDS011;13064;48.162;11.536;2022-10-16T10:04:58;1.60;;;1.50;;
25069;SDS011;13064;48.162;11.536;2022-10-16T10:07:27;1.60;;;1.50;;
25069;SDS011;13064;48.162;11.536;2022-10-16T10:09:56;4.68;;;1.55;;
25069;SDS011;13064;48.162;11.536;2022-10-16T10:12:24;2.38;;;1.50;;
25069;SDS011;13064;48.162;11.536;2022-10-16T10:14:54;3.38;;;1.48;;
25069;SDS011;13064;48.162;11.536;2022-10-16T10:17:23;4.72;;;1.70;;
25069;SDS011;13064;48.162;11.536;2022-10-16T10:19:52;2.85;;;1.42;;
25069;SDS011;13064;48.162;11.536;2022-10-16T10:33:24;2.15;;;1.30;;
25069;SDS011;13064;48.162;11.536;2022-10-16T10:36:14;5.07;;;1.30;;
25069;SDS011;13064;48.162;11.536;2022-10-16T10:38:54;1.25;;;1.13;;
25069;SDS011;13064;48.162;11.536;2022-10-16T10:41:27;1.02;;;0.90;;
25069;SDS011;13064;48.162;11.536;2022-10-16T10:44:19;1.40;;;0.98;;
25069;SDS011;13064;48.162;11.536;2022-10-16T10:49:39;2.65;;;1.08;;
25069;SDS011;13064;48.162;11.536;2022-10-16T10:52:27;1.58;;;1.08;;
25069;SDS011;13064;48.162;11.536;2022-10-16T10:55:03;1.02;;;1.00;;
25069;SDS011;13064;48.162;11.536;2022-10-16T10:57:40;2.03;;;1.00;;
25069;SDS011;13064;48.162;11.536;2022-10-16T11:00:21;2.00;;;0.93;;
25069;SDS011;13064;48.162;11.536;2022-10-16T11:10:32;1.08;;;1.00;;
25069;SDS011;13064;48.162;11.536;2022-10-16T11:16:13;1.38;;;1.20;;
25069;SDS011;13064;48.162;11.536;2022-10-16T11:18:52;1.42;;;0.88;;
25069;SDS011;13064;48.162;11.536;2022-10-16T11:21:23;0.90;;;0.90;;
25069;SDS011;13064;48.162;11.536;2022-10-16T11:24:14;2.55;;;0.90;;
25069;SDS011;13064;48.162;11.536;2022-10-16T11:26:43;1.35;;;0.90;;
25069;SDS011;13064;48.162;11.536;2022-10-16T11:29:13;1.30;;;0.70;;
25069;SDS011;13064;48.162;11.536;2022-10-16T11:31:43;1.75;;;0.80;;
25069;SDS011;13064;48.162;11.536;2022-10-16T11:34:19;2.90;;;0.70;;
25069;SDS011;13064;48.162;11.536;2022-10-16T11:39:21;0.63;;;0.63;;
25069;SDS011;13064;48.162;11.536;2022-10-16T11:41:50;1.27;;;0.70;;
25069;SDS011;13064;48.162;11.536;2022-10-16T11:49:53;0.60;;;0.60;;
25069;SDS011;13064;48.162;11.536;2022-10-16T11:52:24;1.00;;;0.75;;
25069;SDS011;13064;48.162;11.536;2022-10-16T11:54:56;1.08;;;0.65;;
25069;SDS011;13064;48.162;11.536;2022-10-16T11:57:27;2.78;;;0.68;;
25069;SDS011;13064;48.162;11.536;2022-10-16T11:59:58;1.65;;;0.75;;
25069;SDS011;13064;48.162;11.536;2022-10-16T12:02:31;1.15;;;0.90;;
25069;SDS011;13064;48.162;11.536;2022-10-16T12:07:38;1.17;;;0.90;;
25069;SDS011;13064;48.162;11.536;2022-10-16T12:10:41;1.70;;;0.68;;
25069;SDS011;13064;48.162;11.536;2022-10-16T12:13:05;0.70;;;0.70;;
25069;SDS011;13064;48.162;11.536;2022-10-16T12:15:33;1.75;;;0.70;;
25069;SDS011;13064;48.162;11.536;2022-10-16T12:18:21;2.22;;;0.70;;
25069;SDS011;13064;48.162;11.536;2022-10-16T12:20:56;2.85;;;0.85;;
25069;SDS011;13064;48.162;11.536;2022-10-16T12:23:36;1.58;;;0.65;;
25069;SDS011;13064;48.162;11.536;2022-10-16T12:26:04;1.52;;;0.70;;
25069;SDS011;13064;48.162;11.536;2022-10-16T12:28:32;1.05;;;0.75;;
25069;SDS011;13064;48.162;11.536;2022-10-16T12:31:03;1.70;;;1.08;;
25069;SDS011;13064;48.162;11.536;2022-10-16T12:33:32;1.35;;;0.90;;
25069;SDS011;13064;48.162;11.536;2022-10-16T12:36:02;1.45;;;0.82;;
25069;SDS011;13064;48.162;11.536;2022-10-16T12:38:38;0.70;;;0.70;;
25069;SDS011;13064;48.162;11.536;2022-10-16T12:41:12;2.38;;;0.90;;
25069;SDS011;13064;48.162;11.536;2022-10-16T12:43:50;0.70;;;0.70;;
25069;SDS011;13064;48.162;11.536;2022-10-16T12:48:45;3.28;;;0.80;;
25069;SDS011;13064;48.162;11.536;2022-10-16T12:54:03;2.28;;;0.63;;
25069;SDS011;13064;48.162;11.536;2022-10-16T12:56:41;2.15;;;0.70;;
25069;SDS011;13064;48.162;11.536;2022-10-16T13:05:00;2.75;;;0.65;;
25069;SDS011;13064;48.162;11.536;2022-10-16T13:07:17;4.18;;;0.75;;
25069;SDS011;13064;48.162;11.536;2022-10-16T13:10:09;0.60;;;0.60;;
25069;SDS011;13064;48.162;11.536;2022-10-16T13:12:45;0.70;;;0.70;;
25069;SDS011;13064;48.162;11.536;2022-10-16T13:17:56;0.73;;;0.70;;
25069;SDS011;13064;48.162;11.536;2022-10-16T13:20:33;2.67;;;0.57;;
25069;SDS011;13064;48.162;11.536;2022-10-16T13:23:21;1.25;;;0.65;;
25069;SDS011;13064;48.162;11.536;2022-10-16T13:28:29;1.48;;;0.60;;
25069;SDS011;13064;48.162;11.536;2022-10-16T13:30:59;1.20;;;0.60;;
25069;SDS011;13064;48.162;11.536;2022-10-16T13:33:32;2.08;;;0.93;;
25069;SDS011;13064;48.162;11.536;2022-10-16T13:36:00;0.70;;;0.70;;
25069;SDS011;13064;48.162;11.536;2022-10-16T13:38:29;2.78;;;0.80;;
25069;SDS011;13064;48.162;11.536;2022-10-16T13:40:59;2.13;;;0.70;;
25069;SDS011;13064;48.162;11.536;2022-10-16T13:46:05;2.65;;;0.43;;
25069;SDS011;13064;48.162;11.536;2022-10-16T13:48:33;1.95;;;0.55;;
25069;SDS011;13064;48.162;11.536;2022-10-16T13:53:32;2.13;;;0.70;;
25069;SDS011;13064;48.162;11.536;2022-10-16T13:56:01;0.70;;;0.70;;
25069;SDS011;13064;48.162;11.536;2022-10-16T13:58:29;0.80;;;0.70;;
25069;SDS011;13064;48.162;11.536;2022-10-16T14:01:01;2.55;;;0.60;;
25069;SDS011;13064;48.162;11.536;2022-10-16T14:03:29;1.67;;;0.65;;
25069;SDS011;13064;48.162;11.536;2022-10-16T14:05:58;2.28;;;0.70;;
25069;SDS011;13064;48.162;11.536;2022-10-16T14:08:27;2.95;;;0.80;;
25069;SDS011;13064;48.162;11.536;2022-10-16T14:10:56;1.02;;;0.63;;
25069;SDS011;13064;48.162;11.536;2022-10-16T14:15:59;2.63;;;0.85;;
25069;SDS011;13064;48.162;11.536;2022-10-16T14:18:27;0.73;;;0.73;;
25069;SDS011;13064;48.162;11.536;2022-10-16T14:21:04;2.45;;;0.70;;
25069;SDS011;13064;48.162;11.536;2022-10-16T14:23:39;0.73;;;0.68;;
25069;SDS011;13064;48.162;11.536;2022-10-16T14:28:40;4.82;;;0.77;;
25069;SDS011;13064;48.162;11.536;2022-10-16T14:31:24;2.47;;;0.70;;
25069;SDS011;13064;48.162;11.536;2022-10-16T14:33:52;0.80;;;0.60;;
25069;SDS011;13064;48.162;11.536;2022-10-16T14:36:19;0.60;;;0.60;;
25069;SDS011;13064;48.162;11.536;2022-10-16T14:38:55;1.13;;;0.80;;
25069;SDS011;13064;48.162;11.536;2022-10-16T14:41:24;0.95;;;0.70;;
25069;SDS011;13064;48.162;11.536;2022-10-16T14:43:56;1.27;;;0.75;;
25069;SDS011;13064;48.162;11.536;2022-10-16T14:46:29;2.30;;;1.30;;
25069;SDS011;13064;48.162;11.536;2022-10-16T14:49:04;3.88;;;1.48;;
25069;SDS011;13064;48.162;11.536;2022-10-16T14:51:40;1.52;;;1.25;;
25069;SDS011;13064;48.162;11.536;2022-10-16T14:54:08;1.27;;;1.10;;
25069;SDS011;13064;48.162;11.536;2022-10-16T14:59:24;0.82;;;0.80;;
25069;SDS011;13064;48.162;11.536;2022-10-16T15:01:53;1.17;;;0.80;;
25069;SDS011;13064;48.162;11.536;2022-10-16T15:04:21;2.95;;;1.30;;
25069;SDS011;13064;48.162;11.536;2022-10-16T15:06:48;2.53;;;1.00;;
25069;SDS011;13064;48.162;11.536;2022-10-16T15:09:16;1.13;;;1.02;;
25069;SDS011;13064;48.162;11.536;2022-10-16T15:11:43;2.80;;;1.05;;
25069;SDS011;13064;48.162;11.536;2022-10-16T15:14:12;2.67;;;0.90;;
25069;SDS011;13064;48.162;11.536;2022-10-16T15:16:45;1.45;;;1.08;;
25069;SDS011;13064;48.162;11.536;2022-10-16T15:19:12;4.95;;;1.63;;
25069;SDS011;13064;48.162;11.536;2022-10-16T15:21:40;2.13;;;1.30;;
25069;SDS011;13064;48.162;11.536;2022-10-16T15:24:09;2.33;;;1.20;;
25069;SDS011;13064;48.162;11.536;2022-10-16T15:26:44;2.13;;;0.85;;
25069;SDS011;13064;48.162;11.536;2022-10-16T15:29:12;3.40;;;1.10;;
25069;SDS011;13064;48.162;11.536;2022-10-16T15:31:40;3.72;;;1.10;;
25069;SDS011;13064;48.162;11.536;2022-10-16T15:34:13;2.35;;;0.80;;
25069;SDS011;13064;48.162;11.536;2022-10-16T15:36:41;3.38;;;1.00;;
25069;SDS011;13064;48.162;11.536;2022-10-16T15:39:12;4.00;;;1.13;;
25069;SDS011;13064;48.162;11.536;2022-10-16T15:41:41;1.23;;;1.08;;
25069;SDS011;13064;48.162;11.536;2022-10-16T15:44:08;2.78;;;1.13;;
25069;SDS011;13064;48.162;11.536;2022-10-16T15:46:36;1.42;;;1.10;;
25069;SDS011;13064;48.162;11.536;2022-10-16T15:49:03;2.10;;;1.02;;
25069;SDS011;13064;48.162;11.536;2022-10-16T15:51:31;2.17;;;1.20;;
25069;SDS011;13064;48.162;11.536;2022-10-16T15:54:00;1.88;;;1.10;;
25069;SDS011;13064;48.162;11.536;2022-10-16T15:56:28;4.28;;;1.17;;
25069;SDS011;13064;48.162;11.536;2022-10-16T15:58:57;3.47;;;1.38;;
25069;SDS011;13064;48.162;11.536;2022-10-16T16:01:25;2.53;;;1.10;;
25069;SDS011;13064;48.162;11.536;2022-10-16T16:03:53;1.20;;;1.10;;
25069;SDS011;13064;48.162;11.536;2022-10-16T16:06:21;11.70;;;1.65;;
25069;SDS011;13064;48.162;11.536;2022-10-16T16:08:52;1.40;;;1.10;;
25069;SDS011;13064;48.162;11.536;2022-10-16T16:11:20;1.40;;;1.30;;
25069;SDS011;13064;48.162;11.536;2022-10-16T16:13:49;2.10;;;1.30;;
25069;SDS011;13064;48.162;11.536;2022-10-16T16:16:17;1.63;;;1.13;;
25069;SDS011;13064;48.162;11.536;2022-10-16T16:18:46;1.83;;;1.20;;
25069;SDS011;13064;48.162;11.536;2022-10-16T16:21:15;3.15;;;1.50;;
25069;SDS011;13064;48.162;11.536;2022-10-16T16:23:43;1.95;;;1.17;;
25069;SDS011;13064;48.162;11.536;2022-10-16T16:26:24;3.28;;;1.27;;
25069;SDS011;13064;48.162;11.536;2022-10-16T16:28:58;1.58;;;1.40;;
25069;SDS011;13064;48.162;11.536;2022-10-16T16:31:27;2.53;;;1.20;;
25069;SDS011;13064;48.162;11.536;2022-10-16T16:33:55;5.80;;;1.40;;
25069;SDS011;13064;48.162;11.536;2022-10-16T16:36:24;3.25;;;1.38;;
25069;SDS011;13064;48.162;11.536;2022-10-16T16:38:51;6.57;;;1.48;;